Time;durP1;ratioP1;P1;durP2;ratioP2;P2;SDS_P1;SDS_P2;PMS_P1;PMS_P2;Temp;Humidity;BMP_temperature;BMP_pressure;BME280_temperature;BME280_humidity;BME280_pressure;Samples;Min_cycle;Max_cycle;Signal;HPM_P1;HPM_P2
2022/12/27 00:00:49;;;;;;;;;;;;;;;4.86;100.00;100804.50;5528651;32;33826;-71
2022/12/27 00:04:00;;;;;;;;;;;;;;;4.93;100.00;100815.38;5514387;32;32249;-71
2022/12/27 00:07:12;;;;;;;;;;;;;;;4.84;100.00;100816.94;5528670;32;34484;-71
2022/12/27 00:10:19;;;;;;;;;;;;;;;4.81;100.00;100817.16;5528598;32;34764;-72
2022/12/27 00:13:30;;;;;;;;;;;;;;;4.79;100.00;100819.09;5514512;32;32197;-71
2022/12/27 00:16:38;;;;;;;;;;;;;;;4.80;100.00;100813.69;5515387;32;33598;-71
2022/12/27 00:19:49;;;;;;;;;;;;;;;4.78;100.00;100799.84;5502412;32;33708;-72
2022/12/27 00:22:59;;;;;;;;;;;;;;;4.84;100.00;100795.06;5514906;32;33611;-71
2022/12/27 00:26:09;;;;;;;;;;;;;;;4.86;100.00;100790.50;5503133;32;33708;-72
2022/12/27 00:29:22;;;;;;;;;;;;;;;4.87;100.00;100792.19;5528302;32;33965;-71
2022/12/27 00:32:30;;;;;;;;;;;;;;;4.93;100.00;100787.28;5502256;32;33011;-71
2022/12/27 00:35:40;;;;;;;;;;;;;;;4.97;100.00;100795.78;5528246;32;33138;-71
2022/12/27 00:38:49;;;;;;;;;;;;;;;4.90;100.00;100805.91;5528271;32;35037;-71
2022/12/27 00:41:59;;;;;;;;;;;;;;;4.97;100.00;100801.03;5515387;32;33559;-71
2022/12/27 00:45:07;;;;;;;;;;;;;;;5.01;100.00;100808.53;5528187;32;34240;-71
2022/12/27 00:48:15;;;;;;;;;;;;;;;4.95;100.00;100792.41;5515134;32;33737;-71
2022/12/27 00:51:24;;;;;;;;;;;;;;;4.98;100.00;100772.00;5528001;32;33478;-71
2022/12/27 00:54:34;;;;;;;;;;;;;;;4.97;100.00;100753.69;5515046;32;34007;-71
2022/12/27 00:57:40;;;;;;;;;;;;;;;5.04;100.00;100763.59;5514002;32;32832;-71
2022/12/27 01:00:47;;;;;;;;;;;;;;;5.06;100.00;100763.47;5514641;32;33712;-71
2022/12/27 01:03:56;;;;;;;;;;;;;;;5.05;100.00;100765.25;5501436;32;32517;-72
2022/12/27 01:07:07;;;;;;;;;;;;;;;5.07;100.00;100760.72;5527706;32;34359;-72
2022/12/27 01:10:14;;;;;;;;;;;;;;;5.09;100.00;100776.37;5501828;32;32870;-71
2022/12/27 01:13:24;;;;;;;;;;;;;;;5.10;100.00;100762.25;5513568;32;33505;-71
2022/12/27 01:16:32;;;;;;;;;;;;;;;5.10;100.00;100752.59;5501740;32;32624;-72
2022/12/27 01:19:40;;;;;;;;;;;;;;;5.16;100.00;100731.06;5501775;32;33416;-72
2022/12/27 01:22:48;;;;;;;;;;;;;;;5.37;100.00;100735.53;5513713;32;34397;-71
2022/12/27 01:26:03;;;;;;;;;;;;;;;5.42;100.00;100736.81;5527630;32;34116;-72
2022/12/27 01:29:12;;;;;;;;;;;;;;;5.43;100.00;100741.09;5513188;32;32703;-72
2022/12/27 01:32:23;;;;;;;;;;;;;;;5.47;100.00;100739.88;5527281;32;34305;-72
2022/12/27 01:35:32;;;;;;;;;;;;;;;5.50;100.00;100742.28;5516526;32;33827;-71
2022/12/27 01:38:38;;;;;;;;;;;;;;;5.48;100.00;100743.34;5516022;32;33373;-71
2022/12/27 01:45:31;;;;;;;;;;;;;;;5.50;100.00;100758.06;5530205;32;34300;-72
2022/12/27 01:48:38;;;;;;;;;;;;;;;5.53;100.00;100746.44;5529935;32;33516;-72
2022/12/27 01:51:48;;;;;;;;;;;;;;;5.51;100.00;100748.38;5515454;32;33847;-72
2022/12/27 01:55:04;;;;;;;;;;;;;;;5.55;100.00;100744.53;5517426;32;33485;-72
2022/12/27 01:58:31;;;;;;;;;;;;;;;5.58;100.00;100746.91;5529847;32;33826;-71
2022/12/27 02:01:41;;;;;;;;;;;;;;;5.58;100.00;100749.53;5529691;32;33692;-72
2022/12/27 02:04:49;;;;;;;;;;;;;;;5.86;100.00;100759.44;5529379;32;34166;-71
2022/12/27 02:08:02;;;;;;;;;;;;;;;6.07;100.00;100755.03;5529769;32;33144;-71
2022/12/27 02:11:09;;;;;;;;;;;;;;;6.57;100.00;100754.31;5503096;32;33753;-71
2022/12/27 02:14:31;;;;;;;;;;;;;;;7.27;100.00;100762.94;5516342;32;33717;-71
2022/12/27 02:17:39;;;;;;;;;;;;;;;7.81;100.00;100766.84;5529665;32;32805;-71
2022/12/27 02:21:02;;;;;;;;;;;;;;;8.03;100.00;100777.13;5529531;32;34394;-71
2022/12/27 02:24:26;;;;;;;;;;;;;;;8.32;100.00;100769.16;5529507;32;33397;-71
2022/12/27 02:27:34;;;;;;;;;;;;;;;8.50;100.00;100785.94;5529585;32;33645;-71
2022/12/27 02:30:44;;;;;;;;;;;;;;;8.53;100.00;100785.63;5503578;32;34641;-71
2022/12/27 02:33:55;;;;;;;;;;;;;;;8.05;100.00;100790.19;5529489;32;33933;-72
2022/12/27 02:37:04;;;;;;;;;;;;;;;7.78;100.00;100775.06;5516217;32;33453;-72
2022/12/27 02:54:41;;;;;;;;;;;;;;;7.36;100.00;100751.56;5529305;32;34176;-71
2022/12/27 02:57:56;;;;;;;;;;;;;;;7.32;100.00;100747.53;5529357;32;33744;-71
2022/12/27 03:04:40;;;;;;;;;;;;;;;7.14;100.00;100757.09;5529374;32;33511;-71
2022/12/27 03:08:03;;;;;;;;;;;;;;;7.04;100.00;100765.97;5529167;32;33392;-71
2022/12/27 03:18:14;;;;;;;;;;;;;;;7.12;100.00;100772.22;5529158;32;33601;-71
2022/12/27 03:35:22;;;;;;;;;;;;;;;6.83;100.00;100784.50;5529145;32;33642;-72
2022/12/27 03:38:35;;;;;;;;;;;;;;;6.66;100.00;100786.00;5502730;32;32718;-71
2022/12/27 03:45:14;;;;;;;;;;;;;;;6.35;100.00;100792.22;5514447;32;33109;-71
2022/12/27 03:48:27;;;;;;;;;;;;;;;6.24;100.00;100802.84;5514658;32;33298;-71
2022/12/27 03:51:38;;;;;;;;;;;;;;;6.11;100.00;100814.41;5515745;32;32653;-71
2022/12/27 03:54:52;;;;;;;;;;;;;;;5.96;100.00;100806.94;5528704;32;34345;-72
2022/12/27 03:57:58;;;;;;;;;;;;;;;5.95;100.00;100800.03;5501792;32;33358;-71
2022/12/27 04:01:12;;;;;;;;;;;;;;;5.93;100.00;100815.09;5515915;32;33989;-71
2022/12/27 04:04:23;;;;;;;;;;;;;;;6.02;100.00;100812.53;5528634;32;34087;-71
2022/12/27 04:07:34;;;;;;;;;;;;;;;6.68;100.00;100810.41;5502480;32;33851;-71
2022/12/27 04:34:49;;;;;;;;;;;;;;;8.94;100.00;100858.44;5528660;32;33686;-71
2022/12/27 04:37:58;;;;;;;;;;;;;;;8.86;100.00;100862.81;5515314;32;33698;-71
2022/12/27 04:55:14;;;;;;;;;;;;;;;9.42;100.00;100883.84;5436884;32;32646;-71
2022/12/27 04:58:20;;;;;;;;;;;;;;;9.51;100.00;100881.13;5452949;32;33540;-71
2022/12/27 05:02:13;;;;;;;;;;;;;;;9.30;100.00;100900.91;5514969;32;34345;-71
2022/12/27 05:04:57;;;;;;;;;;;;;;;9.12;100.00;100903.50;5523734;32;33460;-71
2022/12/27 05:14:57;;;;;;;;;;;;;;;9.18;100.00;100929.38;5530199;32;33721;-70
2022/12/27 05:18:06;;;;;;;;;;;;;;;8.98;100.00;100923.31;5504402;32;32155;-70
2022/12/27 05:21:15;;;;;;;;;;;;;;;8.58;100.00;100931.50;5516957;32;33123;-70
2022/12/27 05:27:53;;;;;;;;;;;;;;;8.70;100.00;100927.72;5505696;32;32234;-70
2022/12/27 05:31:03;;;;;;;;;;;;;;;8.71;100.00;100933.84;5517064;32;33132;-70
2022/12/27 05:34:12;;;;;;;;;;;;;;;8.57;100.00;100931.63;5529824;32;33762;-70
2022/12/27 05:37:22;;;;;;;;;;;;;;;8.48;100.00;100929.81;5503610;32;33134;-69
2022/12/27 05:40:29;;;;;;;;;;;;;;;8.44;100.00;100931.94;5529885;32;33713;-70
2022/12/27 05:43:38;;;;;;;;;;;;;;;8.32;100.00;100940.16;5503025;32;34613;-70
2022/12/27 05:46:46;;;;;;;;;;;;;;;7.98;100.00;100951.09;5515994;32;32000;-70
2022/12/27 05:49:55;;;;;;;;;;;;;;;7.99;100.00;100962.50;5516766;32;34254;-70
2022/12/27 05:53:03;;;;;;;;;;;;;;;7.95;100.00;100961.06;5516451;32;33660;-70
2022/12/27 05:56:18;;;;;;;;;;;;;;;7.99;100.00;100967.78;5515511;32;32528;-69
2022/12/27 05:59:24;;;;;;;;;;;;;;;7.93;100.00;100979.72;5515478;32;35166;-69
2022/12/27 06:02:34;;;;;;;;;;;;;;;7.68;100.00;100983.69;5529592;32;34300;-69
2022/12/27 06:05:43;;;;;;;;;;;;;;;7.63;100.00;100985.91;5529573;32;34329;-70
2022/12/27 06:08:54;;;;;;;;;;;;;;;7.75;100.00;100998.00;5504119;32;33533;-71
2022/12/27 06:12:01;;;;;;;;;;;;;;;7.71;100.00;100990.50;5529545;32;33441;-70
2022/12/27 06:15:08;;;;;;;;;;;;;;;8.22;100.00;100993.81;5529771;32;33727;-70
2022/12/27 06:18:17;;;;;;;;;;;;;;;8.10;100.00;100996.72;5529846;32;32459;-69
2022/12/27 06:21:26;;;;;;;;;;;;;;;7.79;100.00;101001.25;5522737;32;33251;-70
2022/12/27 06:24:37;;;;;;;;;;;;;;;7.55;100.00;101003.37;5529562;32;33008;-70
2022/12/27 06:27:44;;;;;;;;;;;;;;;7.63;100.00;101007.03;5515140;32;32973;-70
2022/12/27 06:30:51;;;;;;;;;;;;;;;7.39;100.00;101004.72;5529374;32;33564;-69
2022/12/27 06:33:56;;;;;;;;;;;;;;;7.66;100.00;101021.75;5515111;32;33563;-71
2022/12/27 06:37:05;;;;;;;;;;;;;;;7.48;100.00;101018.06;5516544;32;34055;-69
2022/12/27 06:40:12;;;;;;;;;;;;;;;7.24;100.00;101028.94;5529260;32;33358;-69
2022/12/27 06:43:20;;;;;;;;;;;;;;;7.34;100.00;101024.53;5529693;32;33955;-70
2022/12/27 06:46:26;;;;;;;;;;;;;;;7.43;100.00;101026.38;5515062;32;32854;-70
2022/12/27 06:49:34;;;;;;;;;;;;;;;7.76;100.00;101022.63;5515224;32;33895;-70
2022/12/27 06:52:41;;;;;;;;;;;;;;;7.59;100.00;101045.22;5529482;32;34162;-70
2022/12/27 06:55:50;;;;;;;;;;;;;;;7.79;100.00;101059.34;5529340;32;33553;-71
2022/12/27 06:58:56;;;;;;;;;;;;;;;7.92;100.00;101051.19;5532835;32;34511;-70
2022/12/27 07:02:05;;;;;;;;;;;;;;;7.82;100.00;101045.88;5516197;32;33657;-70
2022/12/27 07:05:12;;;;;;;;;;;;;;;8.43;100.00;101061.63;5510216;32;34177;-70
2022/12/27 07:08:22;;;;;;;;;;;;;;;8.55;100.00;101058.72;5510213;32;33539;-70
2022/12/27 07:11:31;;;;;;;;;;;;;;;8.61;100.00;101070.56;5510236;32;33675;-70
2022/12/27 07:14:42;;;;;;;;;;;;;;;8.66;100.00;101063.87;5509968;32;33796;-70
2022/12/27 07:17:53;;;;;;;;;;;;;;;8.82;100.00;101081.00;5509853;32;33780;-70
2022/12/27 07:21:04;;;;;;;;;;;;;;;8.77;100.00;101068.19;5510827;32;33367;-70
2022/12/27 07:24:10;;;;;;;;;;;;;;;8.76;100.00;101073.63;5515372;32;33901;-70
2022/12/27 07:27:19;;;;;;;;;;;;;;;8.89;100.00;101079.47;5514415;32;33631;-70
2022/12/27 07:30:26;;;;;;;;;;;;;;;8.89;100.00;101090.91;5527759;32;34112;-71
2022/12/27 07:33:33;;;;;;;;;;;;;;;8.92;100.00;101100.34;5528588;32;33280;-70
2022/12/27 07:36:39;;;;;;;;;;;;;;;8.89;100.00;101092.69;5528908;32;33670;-71
2022/12/27 07:39:47;;;;;;;;;;;;;;;8.78;100.00;101109.53;5529018;32;33742;-70
2022/12/27 07:42:54;;;;;;;;;;;;;;;8.75;100.00;101093.97;5515204;32;33180;-70
2022/12/27 07:46:04;;;;;;;;;;;;;;;8.83;100.00;101096.72;5527214;32;34130;-72
2022/12/27 07:49:12;;;;;;;;;;;;;;;8.74;100.00;101110.78;5528822;32;33301;-70
2022/12/27 07:52:23;;;;;;;;;;;;;;;8.84;100.00;101110.81;5515140;32;32405;-70
2022/12/27 07:55:30;;;;;;;;;;;;;;;8.73;100.00;101136.41;5528761;32;34363;-73
2022/12/27 07:58:39;;;;;;;;;;;;;;;8.68;100.00;101135.16;5529009;32;33350;-69
2022/12/27 08:05:13;;;;;;;;;;;;;;;8.73;100.00;101162.87;5515093;32;34768;-70
2022/12/27 08:08:21;;;;;;;;;;;;;;;8.87;100.00;101164.28;5528911;32;34122;-71
2022/12/27 08:11:29;;;;;;;;;;;;;;;9.09;100.00;101181.72;5491720;32;35340;-70
2022/12/27 08:14:37;;;;;;;;;;;;;;;9.04;100.00;101184.78;5483605;32;32326;-71
2022/12/27 08:17:46;;;;;;;;;;;;;;;8.89;100.00;101202.03;5509433;32;33597;-70
2022/12/27 08:20:55;;;;;;;;;;;;;;;8.80;100.00;101205.50;5508987;32;34315;-71
2022/12/27 08:24:01;;;;;;;;;;;;;;;8.65;100.00;101220.06;5496295;32;34140;-70
2022/12/27 08:27:07;;;;;;;;;;;;;;;8.67;100.00;101231.34;5509241;32;33765;-70
2022/12/27 08:30:14;;;;;;;;;;;;;;;8.53;100.00;101224.63;5509377;32;34334;-69
2022/12/27 08:33:21;;;;;;;;;;;;;;;8.28;100.00;101219.75;5495336;32;32524;-71
2022/12/27 08:36:31;;;;;;;;;;;;;;;8.21;100.00;101223.91;5509256;32;33678;-69
2022/12/27 08:39:57;;;;;;;;;;;;;;;8.13;100.00;101264.19;5497633;32;33684;-70
2022/12/27 08:43:08;;;;;;;;;;;;;;;8.26;100.00;101261.34;5508773;32;33303;-70
2022/12/27 08:46:15;;;;;;;;;;;;;;;8.29;100.00;101250.50;5525765;32;31791;-70
2022/12/27 08:49:24;;;;;;;;;;;;;;;8.25;100.00;101254.37;5515100;32;34086;-68
2022/12/27 08:52:31;;;;;;;;;;;;;;;8.24;100.00;101228.91;5528202;32;33751;-70
2022/12/27 08:55:38;;;;;;;;;;;;;;;8.27;100.00;101232.16;5501912;32;34595;-70
2022/12/27 08:58:52;;;;;;;;;;;;;;;8.17;100.00;101243.66;5520904;32;34143;-69
2022/12/27 09:01:59;;;;;;;;;;;;;;;8.13;100.00;101250.16;5508631;32;34310;-71
2022/12/27 09:05:07;;;;;;;;;;;;;;;8.13;100.00;101250.97;5511516;32;33812;-69
2022/12/27 09:08:13;;;;;;;;;;;;;;;8.14;100.00;101257.09;5527218;32;34094;-70
2022/12/27 09:11:20;;;;;;;;;;;;;;;8.23;100.00;101227.22;5527764;32;33623;-69
2022/12/27 09:14:29;;;;;;;;;;;;;;;8.24;100.00;101237.69;5514081;32;32423;-71
2022/12/27 09:17:37;;;;;;;;;;;;;;;8.20;100.00;101228.34;5527205;32;33716;-71
2022/12/27 09:20:46;;;;;;;;;;;;;;;8.07;100.00;101238.31;5513652;32;32762;-71
2022/12/27 09:23:56;;;;;;;;;;;;;;;8.09;100.00;101239.00;5527694;32;34137;-71
2022/12/27 09:27:05;;;;;;;;;;;;;;;8.10;100.00;101242.47;5517343;32;34487;-71
2022/12/27 09:30:11;;;;;;;;;;;;;;;8.10;100.00;101260.97;5500953;32;33705;-71
2022/12/27 09:33:19;;;;;;;;;;;;;;;8.03;100.00;101263.31;5523777;32;34206;-72
2022/12/27 09:36:26;;;;;;;;;;;;;;;8.10;100.00;101274.19;5511201;32;32987;-71
2022/12/27 09:39:33;;;;;;;;;;;;;;;8.03;100.00;101276.53;5520697;32;33617;-72
2022/12/27 09:42:48;;;;;;;;;;;;;;;8.00;100.00;101289.12;5506491;32;33501;-71
2022/12/27 09:46:22;;;;;;;;;;;;;;;7.97;98.68;101281.50;5507972;32;33744;-70
2022/12/27 09:49:35;;;;;;;;;;;;;;;7.94;97.84;101297.59;5481506;32;33387;-69
2022/12/27 09:52:49;;;;;;;;;;;;;;;7.96;96.47;101287.72;5494530;32;34266;-73
2022/12/27 09:55:59;;;;;;;;;;;;;;;7.97;93.15;101250.63;5496417;32;33919;-71
2022/12/27 09:59:15;;;;;;;;;;;;;;;7.96;91.32;101291.22;5503769;32;33624;-70
2022/12/27 10:02:22;;;;;;;;;;;;;;;7.86;92.20;101300.88;5529893;32;34420;-70
2022/12/27 10:05:35;;;;;;;;;;;;;;;7.76;92.69;101294.66;5529594;32;34234;-70
2022/12/27 10:08:55;;;;;;;;;;;;;;;7.66;92.97;101285.84;5515572;32;35113;-70
2022/12/27 10:12:05;;;;;;;;;;;;;;;7.60;90.25;101313.59;5530337;32;34314;-70
2022/12/27 10:15:31;;;;;;;;;;;;;;;7.61;91.30;101314.44;5528036;32;33802;-69
2022/12/27 10:18:45;;;;;;;;;;;;;;;7.59;92.60;101313.72;5546654;32;34113;-71
2022/12/27 10:22:04;;;;;;;;;;;;;;;7.67;91.78;101322.69;5534863;32;33663;-71
2022/12/27 10:25:12;;;;;;;;;;;;;;;7.75;91.63;101348.47;5534986;32;32522;-70
2022/12/27 10:28:24;;;;;;;;;;;;;;;7.65;82.59;101377.44;5534893;32;35493;-71
2022/12/27 10:31:32;;;;;;;;;;;;;;;7.57;82.51;101349.97;5535655;32;33744;-70
2022/12/27 10:34:38;;;;;;;;;;;;;;;7.57;76.18;101358.72;5534522;32;34111;-70
2022/12/27 10:37:48;;;;;;;;;;;;;;;7.58;75.80;101362.22;5535709;32;33407;-70
2022/12/27 10:41:05;;;;;;;;;;;;;;;7.44;75.77;101384.47;5522738;32;35457;-70
2022/12/27 10:44:13;;;;;;;;;;;;;;;7.44;76.03;101371.25;5535879;32;33472;-71
2022/12/27 10:47:24;;;;;;;;;;;;;;;7.36;74.86;101384.22;5534507;32;33538;-70
2022/12/27 10:50:33;;;;;;;;;;;;;;;7.34;70.89;101362.41;5534588;32;33163;-70
2022/12/27 10:53:53;;;;;;;;;;;;;;;7.35;67.92;101372.84;5531703;32;33305;-69
2022/12/27 10:57:20;;;;;;;;;;;;;;;7.34;65.96;101352.69;5534315;32;33895;-71
2022/12/27 11:00:26;;;;;;;;;;;;;;;7.29;65.36;101349.56;5539175;32;33656;-69
2022/12/27 11:03:33;;;;;;;;;;;;;;;7.26;66.44;101354.25;5535176;32;33489;-72
2022/12/27 11:06:39;;;;;;;;;;;;;;;7.28;66.01;101365.53;5534969;32;34380;-70
2022/12/27 11:09:45;;;;;;;;;;;;;;;7.30;66.55;101379.44;5548218;32;34083;-71
2022/12/27 11:12:55;;;;;;;;;;;;;;;7.22;65.63;101369.47;5535487;32;34154;-68
2022/12/27 11:16:05;;;;;;;;;;;;;;;7.27;64.81;101351.47;5535163;32;33342;-70
2022/12/27 11:19:17;;;;;;;;;;;;;;;7.26;65.64;101365.63;5521552;32;32149;-69
2022/12/27 11:22:26;;;;;;;;;;;;;;;7.23;67.20;101362.41;5547764;32;33766;-68
2022/12/27 11:25:34;;;;;;;;;;;;;;;7.27;67.19;101371.75;5548280;32;33508;-69
2022/12/27 11:28:49;;;;;;;;;;;;;;;7.22;68.06;101358.94;5527528;32;34107;-69
2022/12/27 11:32:04;;;;;;;;;;;;;;;7.16;68.75;101372.63;5519370;32;33494;-71
2022/12/27 11:35:15;;;;;;;;;;;;;;;7.14;68.43;101368.41;5534785;32;34142;-69
2022/12/27 11:38:26;;;;;;;;;;;;;;;7.18;68.48;101356.66;5524160;32;33102;-70
2022/12/27 11:41:39;;;;;;;;;;;;;;;7.10;71.24;101348.53;5513192;32;33205;-69
2022/12/27 11:45:06;;;;;;;;;;;;;;;6.97;70.04;101340.75;5527762;32;33532;-69
2022/12/27 11:48:29;;;;;;;;;;;;;;;6.94;69.34;101343.59;5503228;32;33368;-72
2022/12/27 11:51:46;;;;;;;;;;;;;;;6.96;70.49;101354.88;5528858;32;34215;-70
2022/12/27 11:54:58;;;;;;;;;;;;;;;6.92;69.36;101354.28;5528759;32;34716;-69
2022/12/27 11:58:07;;;;;;;;;;;;;;;6.97;68.77;101385.59;5528821;32;33526;-69
2022/12/27 12:01:32;;;;;;;;;;;;;;;6.94;68.13;101372.63;5527952;32;32570;-69
2022/12/27 12:04:58;;;;;;;;;;;;;;;6.89;68.14;101383.53;5515008;32;34321;-69
2022/12/27 12:08:04;;;;;;;;;;;;;;;6.93;69.05;101397.31;5527963;32;33452;-70
2022/12/27 12:11:20;;;;;;;;;;;;;;;7.01;69.00;101384.38;5521204;32;33603;-70
2022/12/27 12:14:28;;;;;;;;;;;;;;;7.16;68.50;101374.44;5533643;32;33289;-69
2022/12/27 12:17:37;;;;;;;;;;;;;;;7.11;66.94;101358.13;5547189;32;34143;-71
2022/12/27 12:20:43;;;;;;;;;;;;;;;7.14;66.85;101357.88;5548023;32;34174;-69
2022/12/27 12:24:13;;;;;;;;;;;;;;;7.13;66.93;101350.91;5535159;32;33202;-69
2022/12/27 12:27:21;;;;;;;;;;;;;;;7.17;66.91;101361.09;5533380;32;32774;-69
2022/12/27 12:30:49;;;;;;;;;;;;;;;6.95;68.24;101340.84;5532163;32;32496;-70
2022/12/27 12:34:12;;;;;;;;;;;;;;;6.81;68.13;101346.38;5523570;32;33809;-70
2022/12/27 12:37:28;;;;;;;;;;;;;;;6.96;68.15;101350.47;5518848;32;33407;-69
2022/12/27 12:40:45;;;;;;;;;;;;;;;6.92;67.25;101354.28;5530061;32;32355;-68
2022/12/27 12:43:50;;;;;;;;;;;;;;;6.86;67.54;101356.56;5527806;32;34370;-69
2022/12/27 12:47:22;;;;;;;;;;;;;;;6.75;68.13;101357.41;5527015;32;32783;-69
2022/12/27 12:50:34;;;;;;;;;;;;;;;6.67;67.66;101369.50;5525933;32;32198;-68
2022/12/27 12:54:00;;;;;;;;;;;;;;;6.69;67.01;101357.88;5527350;32;32057;-68
2022/12/27 12:57:27;;;;;;;;;;;;;;;6.73;64.00;101363.78;5528248;32;33700;-69
2022/12/27 13:00:42;;;;;;;;;;;;;;;6.57;65.65;101364.09;5527634;32;33781;-67
2022/12/27 13:03:55;;;;;;;;;;;;;;;6.46;66.38;101378.09;5538610;32;33734;-68
2022/12/27 13:07:06;;;;;;;;;;;;;;;6.32;66.45;101383.59;5534023;32;34070;-69
2022/12/27 13:10:30;;;;;;;;;;;;;;;6.32;66.10;101386.22;5547208;32;33581;-69
2022/12/27 13:13:55;;;;;;;;;;;;;;;6.25;65.86;101403.44;5532818;32;34537;-68
2022/12/27 13:17:04;;;;;;;;;;;;;;;6.26;65.74;101399.00;5531500;32;34127;-69
2022/12/27 13:20:27;;;;;;;;;;;;;;;6.17;65.67;101403.19;5527549;32;33639;-68
2022/12/27 13:23:54;;;;;;;;;;;;;;;6.05;65.58;101401.47;5526610;32;31968;-69
2022/12/27 13:27:08;;;;;;;;;;;;;;;6.01;66.18;101400.84;5526212;32;32040;-70
2022/12/27 13:30:22;;;;;;;;;;;;;;;6.01;66.81;101406.09;5527577;32;34216;-69
2022/12/27 13:33:37;;;;;;;;;;;;;;;5.99;67.28;101407.19;5529570;32;34101;-67
2022/12/27 13:36:44;;;;;;;;;;;;;;;6.00;66.57;101403.59;5529259;32;32308;-68
2022/12/27 13:39:58;;;;;;;;;;;;;;;5.96;66.80;101395.06;5549308;32;33672;-68
2022/12/27 13:43:25;;;;;;;;;;;;;;;5.94;66.73;101398.78;5535358;32;32883;-68
2022/12/27 13:46:48;;;;;;;;;;;;;;;5.93;66.53;101407.63;5488583;32;1495695;-67
2022/12/27 13:50:03;;;;;;;;;;;;;;;5.79;67.13;101410.41;5535457;32;34119;-68
2022/12/27 13:53:19;;;;;;;;;;;;;;;5.78;67.23;101419.25;5549188;32;34360;-68
2022/12/27 13:56:40;;;;;;;;;;;;;;;5.77;65.91;101436.84;5549060;32;32918;-68
2022/12/27 14:00:11;;;;;;;;;;;;;;;5.69;66.15;101442.66;5549607;32;34423;-69
2022/12/27 14:03:20;;;;;;;;;;;;;;;5.61;68.30;101444.19;5528924;32;32787;-69
2022/12/27 14:06:44;;;;;;;;;;;;;;;5.68;67.01;101459.41;5528832;32;32430;-68
2022/12/27 14:10:03;;;;;;;;;;;;;;;5.63;67.43;101458.91;5528940;32;33709;-69
2022/12/27 14:13:10;;;;;;;;;;;;;;;5.43;69.12;101471.78;5528684;32;33538;-69
2022/12/27 14:16:28;;;;;;;;;;;;;;;5.40;68.39;101486.00;5529427;32;33291;-68
2022/12/27 14:19:54;;;;;;;;;;;;;;;5.43;69.27;101491.03;5528416;32;33645;-67
2022/12/27 14:23:12;;;;;;;;;;;;;;;5.47;67.16;101486.44;5528760;32;34126;-68
2022/12/27 14:26:20;;;;;;;;;;;;;;;5.39;67.46;101494.00;5529147;32;33656;-68
2022/12/27 14:29:48;;;;;;;;;;;;;;;5.34;67.08;101498.75;5528596;32;33772;-68
2022/12/27 14:33:12;;;;;;;;;;;;;;;5.26;65.87;101491.41;5529994;32;34146;-68
2022/12/27 14:36:47;;;;;;;;;;;;;;;5.29;66.75;101508.75;5528680;32;34402;-68
2022/12/27 14:40:01;;;;;;;;;;;;;;;5.17;66.02;101502.56;5527788;32;34142;-68
2022/12/27 14:43:27;;;;;;;;;;;;;;;5.20;66.63;101511.06;5515940;32;32367;-67
2022/12/27 14:46:40;;;;;;;;;;;;;;;5.12;67.46;101518.66;5529673;32;33460;-67
2022/12/27 14:50:04;;;;;;;;;;;;;;;5.01;67.83;101528.22;5516251;32;34582;-67
2022/12/27 14:53:28;;;;;;;;;;;;;;;4.98;68.10;101523.19;5527946;32;35539;-67
2022/12/27 14:56:43;;;;;;;;;;;;;;;4.96;68.63;101527.69;5529133;32;34059;-67
2022/12/27 15:00:08;;;;;;;;;;;;;;;4.84;69.20;101536.41;5529140;32;33647;-69
2022/12/27 15:03:14;;;;;;;;;;;;;;;4.83;69.02;101522.41;5527631;32;33414;-67
2022/12/27 15:06:22;;;;;;;;;;;;;;;4.90;67.43;101522.84;5533047;32;33604;-70
2022/12/27 15:09:49;;;;;;;;;;;;;;;4.73;68.36;101519.56;5522136;32;33746;-67
2022/12/27 15:13:14;;;;;;;;;;;;;;;4.68;68.95;101513.78;5521235;32;34041;-68
2022/12/27 15:16:40;;;;;;;;;;;;;;;4.73;67.93;101514.31;5502612;32;34005;-67
2022/12/27 15:20:02;;;;;;;;;;;;;;;4.59;69.91;101531.94;5532094;32;33469;-67
2022/12/27 15:23:29;;;;;;;;;;;;;;;4.56;68.99;101553.16;5515017;32;33694;-67
2022/12/27 15:26:45;;;;;;;;;;;;;;;4.58;67.98;101559.16;5527821;32;34128;-67
2022/12/27 15:30:11;;;;;;;;;;;;;;;4.36;70.33;101560.53;5529391;32;34312;-69
2022/12/27 15:33:27;;;;;;;;;;;;;;;4.31;70.36;101574.91;5520401;32;32436;-69
2022/12/27 15:36:42;;;;;;;;;;;;;;;4.32;69.64;101587.97;5514796;32;33558;-67
2022/12/27 15:39:50;;;;;;;;;;;;;;;4.31;69.35;101588.91;5528962;32;33547;-68
2022/12/27 15:43:15;;;;;;;;;;;;;;;4.14;69.92;101593.53;5515002;32;32356;-67
2022/12/27 15:46:41;;;;;;;;;;;;;;;4.07;70.70;101600.09;5527690;32;33576;-67
2022/12/27 15:49:52;;;;;;;;;;;;;;;3.97;71.35;101593.78;5528807;32;33114;-68
2022/12/27 15:52:58;;;;;;;;;;;;;;;4.04;70.83;101595.91;5527827;32;34004;-68
2022/12/27 15:56:22;;;;;;;;;;;;;;;4.25;69.57;101596.34;5528692;32;33816;-68
2022/12/27 15:59:36;;;;;;;;;;;;;;;4.18;69.81;101597.66;5528638;32;34299;-68
2022/12/27 16:02:48;;;;;;;;;;;;;;;4.03;70.54;101599.47;5531493;32;33145;-68
2022/12/27 16:05:55;;;;;;;;;;;;;;;3.92;69.91;101605.38;5547732;32;33704;-68
2022/12/27 16:09:17;;;;;;;;;;;;;;;4.05;69.79;101602.84;5533839;32;32151;-68
2022/12/27 16:12:37;;;;;;;;;;;;;;;4.09;69.88;101612.22;5533571;32;32145;-68
2022/12/27 16:15:46;;;;;;;;;;;;;;;4.03;69.35;101611.75;5547527;32;33645;-67
2022/12/27 16:19:11;;;;;;;;;;;;;;;4.01;70.08;101606.63;5533449;32;33644;-67
2022/12/27 16:22:21;;;;;;;;;;;;;;;3.92;70.42;101621.13;5534686;32;33439;-68
2022/12/27 16:25:30;;;;;;;;;;;;;;;3.82;71.47;101614.78;5533690;32;32887;-68
2022/12/27 16:28:36;;;;;;;;;;;;;;;3.66;73.11;101615.81;5547516;32;33792;-67
2022/12/27 16:31:47;;;;;;;;;;;;;;;3.68;72.26;101616.56;5534143;32;33591;-68
2022/12/27 16:34:55;;;;;;;;;;;;;;;3.54;72.38;101617.38;5547574;32;33727;-68
2022/12/27 16:38:03;;;;;;;;;;;;;;;3.65;71.12;101619.38;5533356;32;32664;-68
2022/12/27 16:41:14;;;;;;;;;;;;;;;3.79;69.46;101614.97;5522704;32;34151;-68
2022/12/27 16:44:24;;;;;;;;;;;;;;;4.04;68.13;101616.91;5532932;32;32058;-68
2022/12/27 16:47:32;;;;;;;;;;;;;;;4.16;67.54;101620.56;5534307;32;33698;-68
2022/12/27 16:50:54;;;;;;;;;;;;;;;4.17;67.43;101612.56;5532196;32;32812;-70
2022/12/27 16:54:19;;;;;;;;;;;;;;;4.28;66.06;101602.22;5547264;32;33782;-68
2022/12/27 16:57:27;;;;;;;;;;;;;;;4.29;66.10;101617.06;5533331;32;33635;-67
2022/12/27 17:00:40;;;;;;;;;;;;;;;4.28;66.98;101620.63;5547472;32;33144;-68
2022/12/27 17:03:49;;;;;;;;;;;;;;;4.24;67.47;101613.88;5533835;32;33979;-67
2022/12/27 17:06:59;;;;;;;;;;;;;;;4.28;67.70;101622.41;5534114;32;34377;-67
2022/12/27 17:10:24;;;;;;;;;;;;;;;4.32;67.18;101619.47;5547180;32;33214;-67
2022/12/27 17:13:32;;;;;;;;;;;;;;;4.34;67.61;101624.66;5546847;32;33741;-67
2022/12/27 17:16:46;;;;;;;;;;;;;;;4.19;68.43;101631.72;5519806;32;32272;-68
2022/12/27 17:20:00;;;;;;;;;;;;;;;4.18;68.52;101631.81;5520426;32;32092;-68
2022/12/27 17:23:09;;;;;;;;;;;;;;;4.16;68.90;101629.28;5532823;32;32033;-68
2022/12/27 17:26:19;;;;;;;;;;;;;;;4.15;69.12;101635.47;5512580;32;33005;-68
2022/12/27 17:29:26;;;;;;;;;;;;;;;4.20;68.96;101643.06;5528154;32;34358;-68
2022/12/27 17:32:47;;;;;;;;;;;;;;;4.16;69.87;101646.81;5527423;32;34678;-67
2022/12/27 17:36:01;;;;;;;;;;;;;;;4.10;70.08;101647.19;5527281;32;33676;-67
2022/12/27 17:39:23;;;;;;;;;;;;;;;4.07;70.44;101639.50;5527240;32;33806;-68
2022/12/27 17:46:09;;;;;;;;;;;;;;;3.87;72.62;101651.25;5527149;32;33444;-67
2022/12/27 17:49:24;;;;;;;;;;;;;;;3.78;73.37;101663.13;5526757;32;33622;-68
2022/12/27 17:59:41;;;;;;;;;;;;;;;3.64;75.66;101663.13;5526468;32;33836;-67
2022/12/27 18:02:46;;;;;;;;;;;;;;;3.63;75.83;101674.56;5525288;32;32474;-66
2022/12/27 18:05:54;;;;;;;;;;;;;;;3.50;77.17;101673.59;5512940;32;34572;-66
2022/12/27 18:09:03;;;;;;;;;;;;;;;3.38;78.29;101685.69;5512913;32;32191;-67
2022/12/27 18:12:29;;;;;;;;;;;;;;;3.14;78.68;101688.88;5526772;32;34298;-67
2022/12/27 18:15:42;;;;;;;;;;;;;;;3.10;80.19;101695.25;5527224;32;33577;-67
2022/12/27 18:18:48;;;;;;;;;;;;;;;2.89;81.17;101697.28;5515743;32;32369;-66
2022/12/27 18:21:56;;;;;;;;;;;;;;;2.79;83.10;101696.97;5529766;32;34073;-67